Alyeska Resort
Hourly Weather - Base Weather Site
ALY_BASE_HR 7/30/2015
CLICK TO VIEW GRAPH!!

        DATE  TIME   Air  BATT   H2o   H2o   Rel
                    Temp  Volt  Inch Since  Hum%
                      F   AVG   1HR  0600   AVG

   7/30/2015 11:00    60 13.56  0.00  0.00    75
   7/30/2015 10:00    58 13.59  0.00  0.00    80
   7/30/2015 09:00    54 13.68  0.00  0.00    89
   7/30/2015 08:00    52 13.69  0.00  0.00    93
   7/30/2015 07:00    51 13.69  0.00  0.00    94
   7/30/2015 06:00    51 13.68  0.00  0.00    93
   7/30/2015 05:00    53 13.65  0.00  0.00    92
   7/30/2015 04:00    54 13.63  0.00  0.00    91
   7/30/2015 03:00    54 13.62  0.00  0.00    88
   7/30/2015 02:00    56 13.59  0.00  0.00    88
   7/30/2015 01:00    57 13.57  0.00  0.00    86
   7/29/2015 24:00    57 13.56  0.00  0.00    84
   7/29/2015 23:00    58 13.54  0.00  0.00    81
   7/29/2015 22:00    59 13.49  0.00  0.00    79
   7/29/2015 21:00    62 13.44  0.00  0.00    74
   7/29/2015 20:00    65 13.39  0.00  0.00    62
   7/29/2015 19:00    68 13.36  0.00  0.00    53
   7/29/2015 18:00    68 13.34  0.00  0.00    54
   7/29/2015 17:00    68 13.33  0.00  0.00    54
   7/29/2015 16:00    68 13.35  0.00  0.00    56
   7/29/2015 15:00    67 13.40  0.00  0.00    58
   7/29/2015 14:00    65 13.44  0.00  0.00    61
   7/29/2015 13:00    63 13.47  0.00  0.00    68
   7/29/2015 12:00    62 13.48  0.00  0.00    69


CLICK TO VIEW GRAPH!!